Time;durP1;ratioP1;P1;durP2;ratioP2;P2;SDS_P1;SDS_P2;PMS_P1;PMS_P2;Temp;Humidity;BMP_temperature;BMP_pressure;BME280_temperature;BME280_humidity;BME280_pressure;Samples;Min_cycle;Max_cycle;Signal;HPM_P1;HPM_P2
2023/05/26 00:01:38;;;;;;;15.23;8.47;;;16.40;64.90;;;;;;5064274;28;20456;-62
2023/05/26 00:04:17;;;;;;;18.57;8.17;;;16.40;65.00;;;;;;5066127;28;21198;-62
2023/05/26 00:06:56;;;;;;;18.73;9.30;;;16.40;65.10;;;;;;5061150;28;20459;-62
2023/05/26 00:09:28;;;;;;;17.50;8.50;;;16.50;65.20;;;;;;5066005;28;20483;-62
2023/05/26 00:11:57;;;;;;;12.13;7.00;;;16.50;65.10;;;;;;5063847;28;21101;-63
2023/05/26 00:14:36;;;;;;;16.83;7.67;;;16.60;65.10;;;;;;5066184;28;20460;-62
2023/05/26 00:17:16;;;;;;;13.07;8.53;;;16.60;65.10;;;;;;5063987;28;20510;-62
2023/05/26 00:19:54;;;;;;;14.90;7.90;;;16.60;65.10;;;;;;5064969;28;20781;-62
2023/05/26 00:22:33;;;;;;;13.50;7.53;;;16.60;65.10;;;;;;5065628;28;20913;-61
2023/05/26 00:25:08;;;;;;;12.93;7.67;;;16.60;65.20;;;;;;5067452;28;20536;-62
2023/05/26 00:27:49;;;;;;;10.60;6.83;;;16.60;65.10;;;;;;5062081;28;20473;-61
2023/05/26 00:30:30;;;;;;;15.27;8.60;;;16.50;65.10;;;;;;5080395;28;20458;-61
2023/05/26 00:33:02;;;;;;;16.57;8.90;;;16.50;65.30;;;;;;5066279;28;20477;-62
2023/05/26 00:35:37;;;;;;;14.57;7.50;;;16.40;65.30;;;;;;5067273;28;20453;-62
2023/05/26 00:38:13;;;;;;;17.97;9.43;;;16.40;65.40;;;;;;5070560;28;21017;-62
2023/05/26 00:40:44;;;;;;;15.00;7.57;;;16.40;65.50;;;;;;5064569;28;20544;-62
2023/05/26 00:43:19;;;;;;;14.60;7.83;;;16.40;65.50;;;;;;5057903;28;20865;-62
2023/05/26 00:45:52;;;;;;;14.20;7.83;;;16.40;65.60;;;;;;5065065;28;20453;-62
2023/05/26 00:48:25;;;;;;;13.90;7.50;;;16.40;65.60;;;;;;5067559;28;20484;-62
2023/05/26 00:50:58;;;;;;;17.53;8.00;;;16.40;65.70;;;;;;5066473;28;20589;-62
2023/05/26 00:53:35;;;;;;;19.13;8.93;;;16.30;65.70;;;;;;5071273;28;20971;-62
2023/05/26 00:56:10;;;;;;;14.07;8.63;;;16.30;65.70;;;;;;5065615;28;20463;-62
2023/05/26 00:58:43;;;;;;;12.70;8.03;;;16.30;65.70;;;;;;5063275;28;20453;-63
2023/05/26 01:01:21;;;;;;;16.53;8.00;;;16.20;65.70;;;;;;5064693;28;20474;-62
2023/05/26 01:03:56;;;;;;;20.50;9.10;;;16.10;65.80;;;;;;5087718;28;20475;-62
2023/05/26 01:06:36;;;;;;;14.57;8.70;;;16.10;65.80;;;;;;5065185;28;20453;-62
2023/05/26 01:09:21;;;;;;;20.10;9.13;;;16.00;65.90;;;;;;5064824;28;20487;-62
2023/05/26 01:11:59;;;;;;;12.10;8.10;;;15.90;66.00;;;;;;5062942;28;21070;-61
2023/05/26 01:14:41;;;;;;;11.90;7.53;;;15.90;66.00;;;;;;5081680;28;20460;-61
2023/05/26 01:17:18;;;;;;;12.47;7.87;;;15.90;66.00;;;;;;5063759;28;20850;-61
2023/05/26 01:20:18;;;;;;;14.23;8.27;;;15.80;66.10;;;;;;5062816;28;20446;-61
2023/05/26 01:23:35;;;;;;;12.93;8.30;;;15.80;66.20;;;;;;5063561;28;20452;-61
2023/05/26 01:26:53;;;;;;;13.77;8.93;;;15.70;66.20;;;;;;5066002;28;20943;-61
2023/05/26 01:29:36;;;;;;;15.57;9.30;;;15.70;66.20;;;;;;5064234;28;20483;-61
2023/05/26 01:32:16;;;;;;;16.73;9.57;;;15.60;66.20;;;;;;5078307;28;20578;-61
2023/05/26 01:34:51;;;;;;;15.10;9.00;;;15.60;66.30;;;;;;5069365;28;20473;-61
2023/05/26 01:37:30;;;;;;;14.67;8.63;;;15.60;66.30;;;;;;5064269;28;20565;-61
2023/05/26 01:40:04;;;;;;;13.57;8.80;;;15.50;66.30;;;;;;5062343;28;20466;-62
2023/05/26 01:42:41;;;;;;;13.67;7.80;;;15.40;66.30;;;;;;5063020;28;20455;-61
2023/05/26 01:45:21;;;;;;;17.40;8.70;;;15.40;66.40;;;;;;5068739;28;20508;-61
2023/05/26 01:48:00;;;;;;;16.90;8.80;;;15.40;66.50;;;;;;5061604;28;20464;-61
2023/05/26 01:50:48;;;;;;;14.07;8.00;;;15.40;66.60;;;;;;5066794;28;20469;-61
2023/05/26 01:53:30;;;;;;;15.10;8.40;;;15.40;66.60;;;;;;5070421;28;20466;-62
2023/05/26 01:56:11;;;;;;;13.37;9.03;;;15.30;66.70;;;;;;5066116;28;20466;-61
2023/05/26 01:58:46;;;;;;;15.40;8.10;;;15.30;66.70;;;;;;5074062;28;20538;-63
2023/05/26 02:01:33;;;;;;;14.90;8.17;;;15.30;66.60;;;;;;5064255;28;20476;-63
2023/05/26 02:04:13;;;;;;;18.80;8.60;;;15.20;66.60;;;;;;5070790;28;20460;-63
2023/05/26 02:06:51;;;;;;;16.50;8.83;;;15.10;66.60;;;;;;5069597;28;20535;-62
2023/05/26 02:09:26;;;;;;;15.10;8.50;;;15.10;66.80;;;;;;5067927;28;21282;-62
2023/05/26 02:11:58;;;;;;;13.70;8.43;;;15.10;66.90;;;;;;5066766;28;20467;-62
2023/05/26 02:14:30;;;;;;;13.13;8.37;;;15.00;67.00;;;;;;5089410;28;20523;-62
2023/05/26 02:17:10;;;;;;;22.23;10.10;;;15.10;67.00;;;;;;5068105;28;20513;-61
2023/05/26 02:19:43;;;;;;;15.40;8.50;;;15.00;67.00;;;;;;5065910;28;20437;-62
2023/05/26 02:22:19;;;;;;;16.73;8.83;;;15.00;67.00;;;;;;5068651;28;20468;-62
2023/05/26 02:24:53;;;;;;;16.07;8.70;;;15.00;66.90;;;;;;5079973;28;20613;-62
2023/05/26 02:27:26;;;;;;;14.47;9.70;;;14.90;67.00;;;;;;5066218;28;20825;-62
2023/05/26 02:32:53;;;;;;;12.30;8.20;;;14.80;67.00;;;;;;5066461;28;20625;-61
2023/05/26 02:35:32;;;;;;;16.10;9.27;;;14.80;67.10;;;;;;5069405;28;20458;-62
2023/05/26 02:38:07;;;;;;;13.37;8.03;;;14.80;67.20;;;;;;5068384;28;20514;-62
2023/05/26 02:40:44;;;;;;;14.10;8.60;;;14.80;67.20;;;;;;5067775;28;20483;-62
2023/05/26 02:43:16;;;;;;;14.23;8.83;;;14.80;67.30;;;;;;5065700;28;20451;-61
2023/05/26 02:45:54;;;;;;;18.90;8.80;;;14.80;67.30;;;;;;5069231;28;20469;-61
2023/05/26 02:48:31;;;;;;;17.07;10.17;;;14.80;67.20;;;;;;5068896;28;20483;-61
2023/05/26 02:51:06;;;;;;;15.53;8.93;;;14.80;67.20;;;;;;5069264;28;20465;-62
2023/05/26 02:53:42;;;;;;;17.53;8.93;;;14.80;67.30;;;;;;5065351;28;20522;-61
2023/05/26 02:56:17;;;;;;;16.40;10.07;;;14.80;67.30;;;;;;5068669;28;20450;-61
2023/05/26 02:58:47;;;;;;;20.20;10.17;;;14.80;67.40;;;;;;5090001;28;20491;-61
2023/05/26 03:01:33;;;;;;;20.37;10.00;;;14.80;67.50;;;;;;5065991;28;20493;-61
2023/05/26 03:04:20;;;;;;;15.40;8.93;;;14.80;67.50;;;;;;5062480;28;20870;-62
2023/05/26 03:06:54;;;;;;;17.33;9.63;;;14.80;67.40;;;;;;5069136;28;21152;-63
2023/05/26 03:09:34;;;;;;;16.33;9.47;;;14.80;67.40;;;;;;5069360;28;20469;-61
2023/05/26 03:12:15;;;;;;;17.40;9.43;;;14.70;67.50;;;;;;5062021;28;20458;-61
2023/05/26 03:14:57;;;;;;;14.67;8.87;;;14.70;67.50;;;;;;5086906;28;20466;-62
2023/05/26 03:20:28;;;;;;;16.90;9.70;;;14.60;67.40;;;;;;5069296;28;20449;-61
2023/05/26 03:23:05;;;;;;;14.30;9.20;;;14.60;67.40;;;;;;5067340;28;20556;-61
2023/05/26 03:25:39;;;;;;;16.03;9.83;;;14.50;67.40;;;;;;5066803;28;20515;-62
2023/05/26 03:28:15;;;;;;;20.53;9.87;;;14.40;67.50;;;;;;5061861;28;20455;-62
2023/05/26 03:30:51;;;;;;;19.30;10.50;;;14.30;67.60;;;;;;5066923;28;20482;-62
2023/05/26 03:33:28;;;;;;;12.50;8.73;;;14.30;67.70;;;;;;5067548;28;20489;-61
2023/05/26 03:36:13;;;;;;;16.47;10.33;;;14.20;67.70;;;;;;5068023;28;20537;-61
2023/05/26 03:38:53;;;;;;;16.37;10.60;;;14.20;67.90;;;;;;5066450;28;20467;-61
2023/05/26 03:41:26;;;;;;;15.97;10.60;;;14.10;67.90;;;;;;5059021;28;20472;-61
2023/05/26 03:43:58;;;;;;;19.37;9.47;;;14.10;67.90;;;;;;5065017;28;20504;-61
2023/05/26 03:46:39;;;;;;;17.87;9.60;;;14.10;68.00;;;;;;5060224;28;20470;-62
2023/05/26 03:49:15;;;;;;;16.30;9.47;;;14.10;68.10;;;;;;5065995;28;20452;-62
2023/05/26 03:52:03;;;;;;;17.43;9.67;;;14.10;68.20;;;;;;5064756;28;20477;-62
2023/05/26 03:54:33;;;;;;;19.33;10.00;;;14.10;68.30;;;;;;5065289;28;21164;-61
2023/05/26 03:57:14;;;;;;;13.80;8.87;;;14.10;68.30;;;;;;5072492;28;20909;-62
2023/05/26 03:59:50;;;;;;;17.10;9.10;;;14.10;68.30;;;;;;5066229;28;20459;-61
2023/05/26 04:02:25;;;;;;;13.73;9.50;;;14.10;68.30;;;;;;5064296;28;21352;-61
2023/05/26 04:04:57;;;;;;;14.07;9.10;;;14.10;68.30;;;;;;5063764;28;20481;-62
2023/05/26 04:07:29;;;;;;;18.10;10.00;;;14.10;68.40;;;;;;5064119;28;20494;-61
2023/05/26 04:10:08;;;;;;;15.97;9.13;;;14.10;68.50;;;;;;5066970;28;20547;-61
2023/05/26 04:12:47;;;;;;;15.43;9.60;;;14.20;68.60;;;;;;5064492;28;20580;-61
2023/05/26 04:15:18;;;;;;;14.73;9.57;;;14.20;68.60;;;;;;5082941;28;20460;-62
2023/05/26 04:17:50;;;;;;;15.27;9.40;;;14.30;68.60;;;;;;5057887;28;20470;-61
2023/05/26 04:20:30;;;;;;;17.33;8.73;;;14.30;68.60;;;;;;5064255;28;20483;-62
2023/05/26 04:23:12;;;;;;;14.40;10.30;;;14.40;68.70;;;;;;5066709;28;20464;-61
2023/05/26 04:25:45;;;;;;;15.70;8.80;;;14.50;68.80;;;;;;5067400;28;20492;-61
2023/05/26 04:28:38;;;;;;;18.70;10.10;;;14.60;68.80;;;;;;5045776;28;20827;-62
2023/05/26 04:31:30;;;;;;;15.03;9.00;;;14.60;68.80;;;;;;5031318;28;20947;-62
2023/05/26 04:34:11;;;;;;;13.83;8.87;;;14.80;68.80;;;;;;5066316;28;21156;-62
2023/05/26 04:37:04;;;;;;;16.07;8.17;;;14.90;68.80;;;;;;5087954;28;20719;-62
2023/05/26 04:39:37;;;;;;;15.17;9.30;;;15.00;68.90;;;;;;5066419;28;20454;-62
2023/05/26 04:42:09;;;;;;;13.50;8.60;;;15.10;68.90;;;;;;5061569;28;20465;-62
2023/05/26 04:44:43;;;;;;;14.40;9.20;;;15.20;68.90;;;;;;5067615;28;20462;-62
2023/05/26 04:47:24;;;;;;;19.77;10.30;;;15.30;68.80;;;;;;5066084;28;20459;-61
2023/05/26 04:49:56;;;;;;;16.57;9.23;;;15.50;68.80;;;;;;5089211;28;20466;-61
2023/05/26 04:52:32;;;;;;;13.50;9.93;;;15.60;68.90;;;;;;5092008;28;20489;-62
2023/05/26 04:55:10;;;;;;;15.67;9.23;;;15.70;68.90;;;;;;5066543;28;20468;-62
2023/05/26 04:57:40;;;;;;;18.80;10.20;;;15.90;68.90;;;;;;5063554;28;20466;-62
2023/05/26 05:00:19;;;;;;;18.47;10.50;;;16.00;68.90;;;;;;5066823;28;20462;-62
2023/05/26 05:02:59;;;;;;;17.23;10.40;;;16.10;68.80;;;;;;5065258;28;20479;-62
2023/05/26 05:05:50;;;;;;;14.37;9.50;;;16.30;68.80;;;;;;5053305;28;20444;-62
2023/05/26 05:08:24;;;;;;;16.50;9.87;;;16.40;68.80;;;;;;5068325;28;20464;-61
2023/05/26 05:10:58;;;;;;;13.03;8.73;;;16.50;68.90;;;;;;5065701;28;20576;-62
2023/05/26 05:13:33;;;;;;;16.97;10.20;;;16.70;69.00;;;;;;5059675;28;20453;-62
2023/05/26 05:16:06;;;;;;;17.13;9.50;;;16.80;69.00;;;;;;5064834;28;20929;-62
2023/05/26 05:18:38;;;;;;;19.17;8.97;;;16.90;69.00;;;;;;5062501;28;20583;-62
2023/05/26 05:21:21;;;;;;;18.80;9.93;;;17.10;69.00;;;;;;5058925;28;20462;-62
2023/05/26 05:23:57;;;;;;;16.03;8.83;;;17.30;69.00;;;;;;5065796;28;20503;-62
2023/05/26 05:26:44;;;;;;;17.57;9.17;;;17.60;69.20;;;;;;5062242;28;20462;-62
2023/05/26 05:29:24;;;;;;;13.10;8.10;;;18.00;68.70;;;;;;5064420;28;20599;-62
2023/05/26 05:32:01;;;;;;;18.10;8.90;;;18.80;67.50;;;;;;5060586;28;20545;-62
2023/05/26 05:34:51;;;;;;;17.00;8.70;;;19.70;65.80;;;;;;5064162;28;20466;-62
2023/05/26 05:37:25;;;;;;;15.07;8.40;;;20.70;64.30;;;;;;5081735;28;20464;-62
2023/05/26 05:39:58;;;;;;;12.50;7.63;;;21.60;63.10;;;;;;5065585;28;20472;-62
2023/05/26 05:42:33;;;;;;;16.57;9.00;;;22.40;62.10;;;;;;5062842;28;20457;-62
2023/05/26 05:45:07;;;;;;;15.90;8.37;;;23.20;61.20;;;;;;5064459;28;20959;-62
2023/05/26 05:48:01;;;;;;;11.70;7.50;;;23.90;60.20;;;;;;5058086;28;20446;-62
2023/05/26 05:50:38;;;;;;;16.40;8.63;;;24.40;59.20;;;;;;5062742;28;20479;-62
2023/05/26 05:53:07;;;;;;;14.33;7.20;;;24.80;58.40;;;;;;5064933;28;20861;-62
2023/05/26 05:55:53;;;;;;;17.83;8.07;;;25.00;57.90;;;;;;5061338;28;20457;-63
2023/05/26 05:58:31;;;;;;;14.70;7.80;;;25.40;57.30;;;;;;5066396;28;21008;-62
2023/05/26 06:01:03;;;;;;;15.23;7.83;;;25.80;56.50;;;;;;5078660;28;20893;-62
2023/05/26 06:03:45;;;;;;;15.10;7.57;;;26.20;55.70;;;;;;5065439;28;20949;-62
2023/05/26 06:06:20;;;;;;;13.33;7.20;;;26.50;54.90;;;;;;5063885;28;20542;-62
2023/05/26 06:08:56;;;;;;;20.80;8.30;;;26.90;53.70;;;;;;5066057;28;20460;-62
2023/05/26 06:11:30;;;;;;;13.63;7.90;;;26.80;52.80;;;;;;5061161;28;20999;-62
2023/05/26 06:14:04;;;;;;;14.07;6.83;;;26.20;52.70;;;;;;5062674;28;20526;-62
2023/05/26 06:16:36;;;;;;;12.90;7.60;;;25.40;53.10;;;;;;5082876;28;20500;-62
2023/05/26 06:19:10;;;;;;;16.40;8.20;;;24.90;53.80;;;;;;5066776;28;20457;-62
2023/05/26 06:21:41;;;;;;;13.60;7.70;;;24.30;53.70;;;;;;5064647;28;20462;-62
2023/05/26 06:26:57;;;;;;;19.90;8.80;;;22.60;54.00;;;;;;5060566;28;20466;-62
2023/05/26 06:29:37;;;;;;;14.13;8.10;;;21.60;55.10;;;;;;5067822;28;20457;-62
2023/05/26 06:32:12;;;;;;;17.23;8.43;;;20.70;56.30;;;;;;5067026;28;20485;-62
2023/05/26 06:34:47;;;;;;;15.70;8.23;;;20.00;57.00;;;;;;5067443;28;20455;-62
2023/05/26 06:37:20;;;;;;;17.43;8.00;;;19.50;57.80;;;;;;5058343;28;20495;-62
2023/05/26 06:40:00;;;;;;;18.50;9.07;;;19.00;58.70;;;;;;5065677;28;20945;-62
2023/05/26 06:42:39;;;;;;;16.03;8.03;;;18.60;59.40;;;;;;5068886;28;20467;-62
2023/05/26 06:45:16;;;;;;;15.00;8.20;;;18.30;60.10;;;;;;5067951;28;20454;-63
2023/05/26 06:47:51;;;;;;;16.77;8.10;;;18.10;60.70;;;;;;5068552;28;20462;-62
2023/05/26 06:50:29;;;;;;;16.30;8.13;;;17.90;61.30;;;;;;5068199;28;20483;-61
2023/05/26 06:53:01;;;;;;;23.50;8.23;;;17.70;61.80;;;;;;5064500;28;20529;-62
2023/05/26 06:55:39;;;;;;;17.67;8.73;;;17.60;62.40;;;;;;5068141;28;20536;-62
2023/05/26 07:01:05;;;;;;;18.10;8.50;;;17.30;63.10;;;;;;5069642;28;20473;-62
2023/05/26 07:03:43;;;;;;;15.43;7.97;;;17.20;63.80;;;;;;5067462;28;20455;-62
2023/05/26 07:06:23;;;;;;;21.00;8.73;;;17.10;64.40;;;;;;5065980;28;21285;-62
2023/05/26 07:09:11;;;;;;;16.80;9.13;;;17.00;64.60;;;;;;5059775;28;20477;-62
2023/05/26 07:11:57;;;;;;;18.87;8.40;;;17.10;64.80;;;;;;5066402;28;20481;-62
2023/05/26 07:14:46;;;;;;;17.33;9.17;;;17.10;65.20;;;;;;5069671;28;20477;-62
2023/05/26 07:17:25;;;;;;;21.07;8.77;;;17.10;65.20;;;;;;5068032;28;20451;-62
2023/05/26 07:19:57;;;;;;;15.93;8.60;;;17.00;65.70;;;;;;5067261;28;20472;-62
2023/05/26 07:22:26;;;;;;;20.50;8.33;;;17.00;65.90;;;;;;5067838;28;20524;-62
2023/05/26 07:25:30;;;;;;;14.27;8.80;;;17.00;65.90;;;;;;5065133;28;21162;-61
2023/05/26 07:28:03;;;;;;;14.10;7.80;;;17.00;66.30;;;;;;5066500;28;20477;-63
2023/05/26 07:30:35;;;;;;;15.80;8.57;;;17.10;66.30;;;;;;5068353;28;20486;-62
2023/05/26 07:33:13;;;;;;;27.50;8.57;;;17.20;66.20;;;;;;5063698;28;20483;-62
2023/05/26 07:35:49;;;;;;;14.00;8.53;;;17.20;66.20;;;;;;5066543;28;20544;-62
2023/05/26 07:38:24;;;;;;;17.80;8.90;;;17.30;66.30;;;;;;5075878;28;20568;-62
2023/05/26 07:41:00;;;;;;;17.17;7.87;;;17.30;66.40;;;;;;5065452;28;20459;-62
2023/05/26 07:43:33;;;;;;;18.87;8.80;;;17.40;66.60;;;;;;5067572;28;20457;-62
2023/05/26 07:46:02;;;;;;;21.00;8.93;;;17.50;66.50;;;;;;5068411;28;20454;-61
2023/05/26 07:48:56;;;;;;;13.07;7.60;;;17.50;66.60;;;;;;5068443;28;20456;-61
2023/05/26 07:51:37;;;;;;;13.03;6.90;;;17.60;66.60;;;;;;5067812;28;20485;-61
2023/05/26 07:54:07;;;;;;;13.73;7.43;;;17.70;66.70;;;;;;5068499;28;20462;-62
2023/05/26 07:56:48;;;;;;;13.33;7.43;;;17.80;66.80;;;;;;5066136;28;20465;-62
2023/05/26 07:59:18;;;;;;;17.70;8.40;;;17.80;66.80;;;;;;5064012;28;20460;-61
2023/05/26 08:01:48;;;;;;;12.80;7.20;;;17.90;66.80;;;;;;5058518;28;20866;-62
2023/05/26 08:04:28;;;;;;;15.30;7.33;;;18.00;66.70;;;;;;5065996;28;20571;-62
2023/05/26 08:09:50;;;;;;;14.60;7.00;;;18.20;66.50;;;;;;5066541;28;20542;-62
2023/05/26 08:12:24;;;;;;;14.80;7.50;;;18.30;66.50;;;;;;5061884;28;20479;-62
2023/05/26 08:14:57;;;;;;;12.20;6.70;;;18.20;66.40;;;;;;5067245;28;20479;-62
2023/05/26 08:17:31;;;;;;;15.60;7.77;;;18.20;66.50;;;;;;5066893;28;20514;-62
2023/05/26 08:20:05;;;;;;;13.17;7.50;;;18.20;66.60;;;;;;5068355;28;20454;-62
2023/05/26 08:22:45;;;;;;;19.17;7.27;;;18.40;66.50;;;;;;5067022;28;20537;-62
2023/05/26 08:25:18;;;;;;;15.30;7.57;;;18.50;66.50;;;;;;5065925;28;20487;-62
2023/05/26 08:27:55;;;;;;;16.80;7.80;;;18.50;66.30;;;;;;5067986;28;20570;-62
2023/05/26 08:30:27;;;;;;;13.00;7.13;;;18.50;66.10;;;;;;5067948;28;20841;-62
2023/05/26 08:33:01;;;;;;;18.50;7.90;;;18.50;66.10;;;;;;5067275;28;20496;-63
2023/05/26 08:35:34;;;;;;;12.37;6.53;;;18.50;66.50;;;;;;5067530;28;20486;-62
2023/05/26 08:38:12;;;;;;;12.80;6.20;;;18.60;66.40;;;;;;5066247;28;20836;-62
2023/05/26 08:40:43;;;;;;;11.63;6.77;;;18.60;66.10;;;;;;5066203;28;20465;-62
2023/05/26 08:43:17;;;;;;;17.40;7.50;;;18.70;66.00;;;;;;5067165;28;20452;-62
2023/05/26 08:45:47;;;;;;;15.20;7.33;;;18.80;66.10;;;;;;5065417;28;20500;-62
2023/05/26 08:48:26;;;;;;;10.97;7.20;;;18.70;66.10;;;;;;5067823;28;20756;-62
2023/05/26 08:51:03;;;;;;;15.43;7.20;;;18.70;65.90;;;;;;5066921;28;20892;-62
2023/05/26 08:53:37;;;;;;;13.43;7.60;;;18.70;65.80;;;;;;5065882;28;20851;-62
2023/05/26 08:56:07;;;;;;;15.23;7.17;;;18.70;65.80;;;;;;5066737;28;20483;-62
2023/05/26 08:58:49;;;;;;;15.03;7.10;;;18.80;65.80;;;;;;5067494;28;20456;-61
2023/05/26 09:01:21;;;;;;;14.73;7.27;;;18.80;65.70;;;;;;5064729;28;20485;-61
2023/05/26 09:03:50;;;;;;;16.40;7.07;;;18.80;65.70;;;;;;5067809;28;20467;-62
2023/05/26 09:06:27;;;;;;;14.30;7.30;;;18.90;65.60;;;;;;5067179;28;20460;-61
2023/05/26 09:09:00;;;;;;;15.23;7.23;;;18.90;65.40;;;;;;5066682;28;20456;-62
2023/05/26 09:14:28;;;;;;;19.90;7.00;;;19.00;65.50;;;;;;5065720;28;20840;-62
2023/05/26 09:17:08;;;;;;;13.77;7.60;;;19.00;65.50;;;;;;5067287;28;20927;-62
2023/05/26 09:19:41;;;;;;;17.17;7.73;;;19.10;65.30;;;;;;5064028;28;20665;-62
2023/05/26 09:22:22;;;;;;;13.57;6.60;;;19.10;65.10;;;;;;5067498;28;20878;-62
2023/05/26 09:25:04;;;;;;;14.93;6.97;;;19.20;65.00;;;;;;5066890;28;20467;-62
2023/05/26 09:27:41;;;;;;;12.97;5.70;;;19.20;65.00;;;;;;5065875;28;21157;-62
2023/05/26 09:33:04;;;;;;;15.30;6.60;;;19.40;65.10;;;;;;5067113;28;20480;-61
2023/05/26 09:35:45;;;;;;;29.83;9.10;;;19.50;64.90;;;;;;5064047;28;20801;-62
2023/05/26 09:38:24;;;;;;;17.40;6.60;;;19.60;64.60;;;;;;5064629;28;20455;-62
2023/05/26 09:40:56;;;;;;;16.10;7.30;;;19.60;64.50;;;;;;5067189;28;20456;-62
2023/05/26 09:43:35;;;;;;;14.23;6.27;;;19.60;64.50;;;;;;5064154;28;20480;-62
2023/05/26 09:46:09;;;;;;;12.47;6.73;;;19.60;64.50;;;;;;5065211;28;20445;-63
2023/05/26 09:48:41;;;;;;;15.53;7.23;;;19.60;64.40;;;;;;5066689;28;20512;-62
2023/05/26 09:51:23;;;;;;;11.63;6.43;;;19.70;64.20;;;;;;5067302;28;20846;-62
2023/05/26 09:54:12;;;;;;;12.43;6.53;;;19.70;64.00;;;;;;5065353;28;20499;-62
2023/05/26 09:56:54;;;;;;;16.80;6.97;;;19.70;63.70;;;;;;5066238;28;20914;-62
2023/05/26 09:59:38;;;;;;;11.27;7.30;;;19.70;63.70;;;;;;5066612;28;20468;-62
2023/05/26 10:02:22;;;;;;;14.73;6.77;;;19.80;63.70;;;;;;5064190;28;20474;-62
2023/05/26 10:05:02;;;;;;;10.03;6.00;;;19.90;63.40;;;;;;5070572;28;20519;-62
2023/05/26 10:07:39;;;;;;;11.93;6.30;;;20.00;63.40;;;;;;5070450;28;20897;-62
2023/05/26 10:10:18;;;;;;;11.00;6.07;;;20.00;63.30;;;;;;5069480;28;20465;-62
2023/05/26 10:12:48;;;;;;;12.23;5.97;;;20.00;63.00;;;;;;5064904;28;20570;-62
2023/05/26 10:15:17;;;;;;;12.53;6.30;;;20.10;63.10;;;;;;5070835;28;20469;-62
2023/05/26 10:18:03;;;;;;;12.20;6.63;;;20.10;63.10;;;;;;5069539;28;20552;-62
2023/05/26 10:20:36;;;;;;;15.67;7.37;;;20.10;63.00;;;;;;5069764;28;20456;-62
2023/05/26 10:23:17;;;;;;;15.57;7.73;;;20.10;63.00;;;;;;5064438;28;20465;-62
2023/05/26 10:26:03;;;;;;;14.83;7.00;;;20.20;62.80;;;;;;5070925;28;20468;-63
2023/05/26 10:29:03;;;;;;;12.03;6.30;;;20.20;62.50;;;;;;5068517;28;20461;-62
2023/05/26 10:31:40;;;;;;;11.53;6.40;;;20.20;62.40;;;;;;5067842;28;21008;-62
2023/05/26 10:34:37;;;;;;;13.57;7.07;;;20.20;62.40;;;;;;5069087;28;20847;-62
2023/05/26 10:37:18;;;;;;;15.67;6.47;;;20.30;62.10;;;;;;5068626;28;20437;-62
2023/05/26 10:39:59;;;;;;;9.30;5.13;;;20.30;61.90;;;;;;5070439;28;20456;-62
2023/05/26 10:42:41;;;;;;;16.53;6.53;;;20.30;61.70;;;;;;5067744;28;20982;-62
2023/05/26 10:45:21;;;;;;;11.37;6.47;;;20.30;61.50;;;;;;5070293;28;20467;-62
2023/05/26 10:48:02;;;;;;;14.93;6.77;;;20.40;61.50;;;;;;5092745;28;21083;-62
2023/05/26 10:51:14;;;;;;;12.27;6.10;;;20.40;61.50;;;;;;5066145;28;20528;-62
2023/05/26 10:53:56;;;;;;;13.67;7.00;;;20.50;61.40;;;;;;5064012;28;20923;-62
2023/05/26 10:56:36;;;;;;;13.97;6.80;;;20.50;61.40;;;;;;5067716;28;20544;-62
2023/05/26 10:59:21;;;;;;;11.90;6.10;;;20.50;61.30;;;;;;5069041;28;20892;-62
2023/05/26 11:01:53;;;;;;;13.60;5.97;;;20.60;61.40;;;;;;5066082;28;20470;-62
2023/05/26 11:04:44;;;;;;;10.17;5.90;;;20.60;61.20;;;;;;5068524;28;20445;-62
2023/05/26 11:07:28;;;;;;;13.73;5.40;;;20.60;60.80;;;;;;5066564;28;20768;-62
2023/05/26 11:10:05;;;;;;;11.17;5.80;;;20.70;60.60;;;;;;5085282;28;20494;-62
2023/05/26 11:12:54;;;;;;;17.80;6.13;;;20.70;60.40;;;;;;5066316;28;20913;-62
2023/05/26 11:15:43;;;;;;;12.03;6.23;;;20.80;59.90;;;;;;5068418;28;20457;-62
2023/05/26 11:18:16;;;;;;;12.80;5.73;;;20.80;59.80;;;;;;5068490;28;20496;-62
2023/05/26 11:20:50;;;;;;;12.00;6.10;;;20.80;59.80;;;;;;5066406;28;20450;-62
2023/05/26 11:23:25;;;;;;;13.30;7.07;;;20.90;59.50;;;;;;5065603;28;20457;-61
2023/05/26 11:25:59;;;;;;;17.70;6.17;;;20.90;59.60;;;;;;5056978;28;20476;-61
2023/05/26 11:28:32;;;;;;;9.87;6.00;;;20.90;59.50;;;;;;5067731;28;20469;-61
2023/05/26 11:31:18;;;;;;;15.80;5.43;;;21.00;59.50;;;;;;5063896;28;20477;-61
2023/05/26 11:33:57;;;;;;;15.60;5.87;;;21.10;59.20;;;;;;5065901;28;20536;-62
2023/05/26 11:36:36;;;;;;;16.20;6.17;;;21.20;59.10;;;;;;5067141;28;20465;-61
2023/05/26 11:39:10;;;;;;;12.63;5.53;;;21.20;58.90;;;;;;5068952;28;20445;-62
2023/05/26 11:41:41;;;;;;;11.67;5.90;;;21.20;58.70;;;;;;5063751;28;20524;-61
2023/05/26 11:44:16;;;;;;;11.60;5.60;;;21.20;58.20;;;;;;5067149;28;20673;-61
2023/05/26 11:46:52;;;;;;;10.17;5.10;;;21.30;58.00;;;;;;5067070;28;20588;-61
2023/05/26 11:49:23;;;;;;;10.80;5.40;;;21.40;57.80;;;;;;5066935;28;21134;-61
2023/05/26 11:52:02;;;;;;;12.40;5.50;;;21.40;57.70;;;;;;5067166;28;20483;-61
2023/05/26 11:54:35;;;;;;;10.13;5.20;;;21.40;57.80;;;;;;5066657;28;20500;-61
2023/05/26 11:57:25;;;;;;;11.63;5.63;;;21.50;57.90;;;;;;5066842;28;20514;-61
2023/05/26 11:59:59;;;;;;;12.67;5.13;;;21.60;58.00;;;;;;5065809;28;20437;-62
2023/05/26 12:02:50;;;;;;;11.00;5.50;;;21.60;58.00;;;;;;5066936;28;20469;-61
2023/05/26 12:05:30;;;;;;;17.27;5.60;;;21.70;57.20;;;;;;5067521;28;20552;-61
2023/05/26 12:08:10;;;;;;;12.07;5.70;;;21.70;57.10;;;;;;5063035;28;20879;-63
2023/05/26 12:10:44;;;;;;;12.50;5.57;;;21.70;57.10;;;;;;5066267;28;20456;-61
2023/05/26 12:13:29;;;;;;;14.13;6.30;;;21.70;57.20;;;;;;5066643;28;20550;-62
2023/05/26 12:16:03;;;;;;;11.47;5.90;;;21.80;56.90;;;;;;5067066;28;20453;-62
2023/05/26 12:18:43;;;;;;;10.93;5.80;;;21.80;56.80;;;;;;5063600;28;20679;-62
2023/05/26 12:21:25;;;;;;;8.67;4.83;;;21.90;56.50;;;;;;5065732;28;20471;-62
2023/05/26 12:24:00;;;;;;;10.30;5.13;;;21.80;56.10;;;;;;5065233;28;20506;-62
2023/05/26 12:26:40;;;;;;;12.90;5.70;;;21.90;55.90;;;;;;5063587;28;20465;-62
2023/05/26 12:29:23;;;;;;;12.53;5.57;;;21.90;55.80;;;;;;5068168;28;20560;-62
2023/05/26 12:32:02;;;;;;;15.33;5.33;;;21.90;55.80;;;;;;5064466;28;20469;-62
2023/05/26 12:34:39;;;;;;;15.53;5.10;;;21.90;55.50;;;;;;5066439;28;20505;-62
2023/05/26 12:37:19;;;;;;;12.77;5.60;;;21.90;55.20;;;;;;5064488;28;20687;-62
2023/05/26 12:39:53;;;;;;;11.73;4.90;;;21.90;54.70;;;;;;5068152;28;20883;-62
2023/05/26 12:42:23;;;;;;;12.67;5.63;;;21.90;54.60;;;;;;5064505;28;20464;-61
2023/05/26 12:45:07;;;;;;;10.83;5.50;;;21.90;54.50;;;;;;5068409;28;20464;-62
2023/05/26 12:47:38;;;;;;;10.17;4.97;;;22.00;54.50;;;;;;5067158;28;20537;-61
2023/05/26 12:50:09;;;;;;;10.40;5.20;;;22.00;54.60;;;;;;5065789;28;20457;-61
2023/05/26 12:52:40;;;;;;;10.70;5.30;;;22.10;54.70;;;;;;5067130;28;20782;-61
2023/05/26 12:55:09;;;;;;;11.83;5.67;;;22.10;54.80;;;;;;5067689;28;20476;-61
2023/05/26 12:57:56;;;;;;;13.60;5.47;;;22.10;54.60;;;;;;5067116;28;20549;-62
2023/05/26 13:00:33;;;;;;;9.03;5.17;;;22.20;54.30;;;;;;5086828;28;20458;-61
2023/05/26 13:03:04;;;;;;;31.83;8.13;;;22.20;54.20;;;;;;5064811;28;20797;-62
2023/05/26 13:05:54;;;;;;;19.43;5.33;;;22.20;54.10;;;;;;5066583;28;20458;-62
2023/05/26 13:08:27;;;;;;;11.97;5.80;;;22.20;54.10;;;;;;5066767;28;20469;-63
2023/05/26 13:10:58;;;;;;;10.93;5.20;;;22.20;54.10;;;;;;5064667;28;20453;-62
2023/05/26 13:13:36;;;;;;;32.13;8.37;;;22.20;53.90;;;;;;5060174;28;20801;-62
2023/05/26 13:16:14;;;;;;;8.87;4.93;;;22.30;53.70;;;;;;5066222;28;20492;-62
2023/05/26 13:18:54;;;;;;;39.47;8.13;;;22.30;53.60;;;;;;5064639;28;20983;-61
2023/05/26 13:21:42;;;;;;;21.90;6.50;;;22.30;53.70;;;;;;5061952;28;20446;-61
2023/05/26 13:24:18;;;;;;;14.40;6.13;;;22.40;53.60;;;;;;5066296;28;20469;-61
2023/05/26 13:26:52;;;;;;;12.60;5.60;;;22.50;53.60;;;;;;5058257;28;20449;-61
2023/05/26 13:29:32;;;;;;;13.83;5.73;;;22.40;53.70;;;;;;5063668;28;20464;-61
2023/05/26 13:32:07;;;;;;;11.60;5.70;;;22.40;53.60;;;;;;5058412;28;20485;-61
2023/05/26 13:34:41;;;;;;;11.23;5.27;;;22.40;53.60;;;;;;5065429;28;21051;-60
2023/05/26 13:37:27;;;;;;;14.03;5.47;;;22.40;53.50;;;;;;5064599;28;20738;-61
2023/05/26 13:40:01;;;;;;;10.70;5.30;;;22.50;53.30;;;;;;5062963;28;20535;-61
2023/05/26 13:42:34;;;;;;;9.93;4.70;;;22.50;53.30;;;;;;5063541;28;20471;-60
2023/05/26 13:45:10;;;;;;;15.37;5.60;;;22.50;53.20;;;;;;5062871;28;20453;-61
2023/05/26 13:47:55;;;;;;;13.27;5.47;;;22.50;53.30;;;;;;5062718;28;22312;-61
2023/05/26 13:50:27;;;;;;;8.50;4.50;;;22.50;53.20;;;;;;5064232;28;20472;-62